createdAt,value
2023-05-23T00:00:15.486Z,672.50
2023-05-23T00:02:44.692Z,665.45
2023-05-23T00:05:15.516Z,627.42
2023-05-23T00:07:45.565Z,703.10
2023-05-23T00:10:14.426Z,654.88
2023-05-23T00:12:42.855Z,654.90
2023-05-23T00:15:12.257Z,713.95
2023-05-23T00:17:40.734Z,668.13
2023-05-23T00:20:11.037Z,701.13
2023-05-23T00:22:42.973Z,611.55
2023-05-23T00:25:12.955Z,695.78
2023-05-23T00:27:41.341Z,699.55
2023-05-23T00:30:10.500Z,701.08
2023-05-23T00:32:39.024Z,648.78
2023-05-23T00:35:08.523Z,714.10
2023-05-23T00:37:36.900Z,720.35
2023-05-23T00:40:05.796Z,705.38
2023-05-23T00:42:35.560Z,678.67
2023-05-23T00:45:03.954Z,717.67
2023-05-23T00:47:32.766Z,733.28
2023-05-23T00:50:01.403Z,693.20
2023-05-23T00:52:29.884Z,715.60
2023-05-23T00:54:58.517Z,712.47
2023-05-23T00:57:26.987Z,736.65
2023-05-23T00:59:56.869Z,709.92
2023-05-23T01:02:25.913Z,698.13
2023-05-23T01:04:54.583Z,729.30
2023-05-23T01:07:23.062Z,705.08
2023-05-23T01:09:51.912Z,765.00
2023-05-23T01:12:26.800Z,735.10
2023-05-23T01:15:03.560Z,740.97
2023-05-23T01:17:43.140Z,717.17
2023-05-23T01:20:13.987Z,704.47
2023-05-23T01:23:12.932Z,720.55
2023-05-23T01:25:59.439Z,722.17
2023-05-23T01:28:33.165Z,739.17
2023-05-23T01:31:03.674Z,725.45
2023-05-23T01:33:34.624Z,720.95
2023-05-23T01:36:04.533Z,731.55
2023-05-23T01:38:32.940Z,722.45
2023-05-23T01:41:01.326Z,716.63
2023-05-23T01:43:31.207Z,738.10
2023-05-23T01:46:01.111Z,743.25
2023-05-23T01:48:30.293Z,754.65
2023-05-23T01:50:58.860Z,730.30
2023-05-23T01:53:27.447Z,739.13
2023-05-23T01:55:56.103Z,730.15
2023-05-23T01:58:24.539Z,729.88
2023-05-23T02:00:54.375Z,733.80
2023-05-23T02:03:22.924Z,743.53
2023-05-23T02:05:51.465Z,725.53
2023-05-23T02:08:20.041Z,732.15
2023-05-23T02:10:48.458Z,731.60
2023-05-23T02:13:17.467Z,735.13
2023-05-23T02:15:45.904Z,725.10
2023-05-23T02:18:15.745Z,736.08
2023-05-23T02:20:44.118Z,741.22
2023-05-23T02:23:12.588Z,726.03
2023-05-23T02:25:41.324Z,739.38
2023-05-23T02:28:11.912Z,727.15
2023-05-23T02:30:40.360Z,734.00
2023-05-23T02:33:09.085Z,722.20
2023-05-23T02:35:39.097Z,725.72
2023-05-23T02:38:07.662Z,714.92
2023-05-23T02:40:36.125Z,727.22
2023-05-23T02:43:04.580Z,719.10
2023-05-23T02:45:32.999Z,727.67
2023-05-23T02:48:01.619Z,732.05
2023-05-23T02:50:30.127Z,728.20
2023-05-23T02:52:59.995Z,723.10
2023-05-23T02:55:28.872Z,723.08
2023-05-23T02:57:58.654Z,712.10
2023-05-23T03:00:27.424Z,728.03
2023-05-23T03:02:56.175Z,729.15
2023-05-23T03:05:24.560Z,719.35
2023-05-23T03:07:54.452Z,712.30
2023-05-23T03:10:24.166Z,725.13
2023-05-23T03:12:52.522Z,743.08
2023-05-23T03:15:21.125Z,731.58
2023-05-23T03:17:49.529Z,717.50
2023-05-23T03:20:17.927Z,736.58
2023-05-23T03:22:46.279Z,740.15
2023-05-23T03:25:16.300Z,751.13
2023-05-23T03:27:45.999Z,722.75
2023-05-23T03:30:14.914Z,732.22
2023-05-23T03:32:43.391Z,732.35
2023-05-23T03:35:12.228Z,712.10
2023-05-23T03:37:40.626Z,731.67
2023-05-23T03:40:10.120Z,761.92
2023-05-23T03:42:39.584Z,745.78
2023-05-23T03:45:09.784Z,708.05
2023-05-23T03:47:38.212Z,706.83
2023-05-23T03:50:07.496Z,749.22
2023-05-23T03:52:35.843Z,732.80
2023-05-23T03:55:04.243Z,718.25
2023-05-23T03:57:32.607Z,818.63
2023-05-23T04:00:00.930Z,763.20
2023-05-23T04:02:31.039Z,718.63
2023-05-23T04:05:00.659Z,759.05
2023-05-23T04:07:29.403Z,761.80
2023-05-23T04:09:57.800Z,707.92
2023-05-23T04:12:26.221Z,722.08
2023-05-23T04:14:54.657Z,741.17
2023-05-23T04:17:23.945Z,762.33
2023-05-23T04:19:53.900Z,749.72
2023-05-23T04:22:22.285Z,785.35
2023-05-23T04:24:50.678Z,767.85
2023-05-23T04:27:19.934Z,769.85
2023-05-23T04:29:48.396Z,702.53
2023-05-23T04:32:19.611Z,725.72
2023-05-23T04:34:48.088Z,712.50
2023-05-23T04:37:22.227Z,745.55
2023-05-23T04:39:51.066Z,730.28
2023-05-23T04:42:24.410Z,736.65
2023-05-23T04:44:53.558Z,744.78
2023-05-23T04:47:22.377Z,750.60
2023-05-23T04:49:50.767Z,808.92
2023-05-23T04:52:20.518Z,750.67
2023-05-23T04:54:49.673Z,716.10
2023-05-23T04:57:18.405Z,766.10
2023-05-23T04:59:46.982Z,736.03
2023-05-23T05:02:15.571Z,767.95
2023-05-23T05:04:44.002Z,769.13
2023-05-23T05:07:12.490Z,727.55
2023-05-23T05:09:42.482Z,774.47
2023-05-23T05:12:11.223Z,770.10
2023-05-23T05:14:39.656Z,761.60
2023-05-23T05:17:08.750Z,702.42
2023-05-23T05:19:37.307Z,760.67
2023-05-23T05:22:06.152Z,754.00
2023-05-23T05:24:34.551Z,700.90
2023-05-23T05:27:04.362Z,777.60
2023-05-23T05:29:33.840Z,772.72
2023-05-23T05:32:03.303Z,763.55
2023-05-23T05:34:31.728Z,808.58
2023-05-23T05:37:00.193Z,791.30
2023-05-23T05:39:28.921Z,743.90
2023-05-23T05:41:57.334Z,743.25
2023-05-23T05:44:27.238Z,810.83
2023-05-23T05:46:56.081Z,811.92
2023-05-23T05:49:24.503Z,791.95
2023-05-23T05:51:53.155Z,790.03
2023-05-23T05:54:21.575Z,778.13
2023-05-23T05:56:49.976Z,801.42
2023-05-23T05:59:18.432Z,773.95
2023-05-23T06:01:48.708Z,809.75
2023-05-23T06:04:17.252Z,809.53
2023-05-23T06:06:45.935Z,809.53
2023-05-23T06:09:14.360Z,803.55
2023-05-23T06:11:42.747Z,826.75
2023-05-23T06:14:11.189Z,795.75
2023-05-23T06:16:40.194Z,810.78
2023-05-23T06:19:10.388Z,849.00
2023-05-23T06:21:38.783Z,859.65
2023-05-23T06:24:07.918Z,804.28
2023-05-23T06:26:37.707Z,787.60
2023-05-23T06:29:06.432Z,798.08
2023-05-23T06:31:34.891Z,770.13
2023-05-23T06:34:03.389Z,799.63
2023-05-23T06:36:33.148Z,758.00
2023-05-23T06:39:01.502Z,757.58
2023-05-23T06:41:29.915Z,760.63
2023-05-23T06:43:58.280Z,805.47
2023-05-23T06:46:26.890Z,806.50
2023-05-23T06:49:06.589Z,790.58
2023-05-23T06:51:43.365Z,778.17
2023-05-23T06:54:11.961Z,787.95
2023-05-23T06:56:40.345Z,781.47
2023-05-23T06:59:08.732Z,787.20
2023-05-23T07:01:37.220Z,833.70
2023-05-23T07:04:05.785Z,846.63
2023-05-23T07:06:35.758Z,778.28
2023-05-23T07:09:05.577Z,811.15
2023-05-23T07:11:35.430Z,759.20
2023-05-23T07:14:03.938Z,778.10
2023-05-23T07:16:32.352Z,792.35
2023-05-23T07:19:02.073Z,789.33
2023-05-23T07:21:30.948Z,863.28
2023-05-23T07:23:59.346Z,774.95
2023-05-23T07:26:29.291Z,763.92
2023-05-23T07:28:57.730Z,784.33
2023-05-23T07:31:26.414Z,818.28
2023-05-23T07:33:56.680Z,800.95
2023-05-23T07:36:25.385Z,781.95
2023-05-23T07:38:54.179Z,797.60
2023-05-23T07:41:22.817Z,866.53
2023-05-23T07:43:52.716Z,781.78
2023-05-23T07:46:22.971Z,808.55
2023-05-23T07:48:51.467Z,783.58
2023-05-23T07:51:21.554Z,784.50
2023-05-23T07:53:50.071Z,776.67
2023-05-23T07:56:18.523Z,791.33
2023-05-23T07:58:47.061Z,776.22
2023-05-23T08:01:16.949Z,791.58
2023-05-23T08:03:46.029Z,784.58
2023-05-23T08:06:14.513Z,806.20
2023-05-23T08:08:43.722Z,759.95
2023-05-23T08:11:12.123Z,790.55
2023-05-23T08:13:40.633Z,799.78
2023-05-23T08:16:09.155Z,772.10
2023-05-23T08:18:39.195Z,750.63
2023-05-23T08:21:08.277Z,807.97
2023-05-23T08:23:36.668Z,755.60
2023-05-23T08:26:05.172Z,792.75
2023-05-23T08:28:34.789Z,750.22
2023-05-23T08:31:03.471Z,786.35
2023-05-23T08:33:31.933Z,777.38
2023-05-23T08:36:01.926Z,782.47
2023-05-23T08:38:30.404Z,827.95
2023-05-23T08:41:02.148Z,786.92
2023-05-23T08:43:30.715Z,774.95
2023-05-23T08:45:59.388Z,817.45
2023-05-23T08:48:28.852Z,770.92
2023-05-23T08:50:57.291Z,823.55
2023-05-23T08:53:29.149Z,757.08
2023-05-23T08:56:02.297Z,793.03
2023-05-23T08:58:32.010Z,756.65
2023-05-23T09:01:01.192Z,766.47
2023-05-23T09:03:29.774Z,841.65
2023-05-23T09:05:58.851Z,752.17
2023-05-23T09:08:29.172Z,768.55
2023-05-23T09:10:57.892Z,817.22
2023-05-23T09:13:28.501Z,790.20
2023-05-23T09:16:04.365Z,782.85
2023-05-23T09:18:37.035Z,778.85
2023-05-23T09:21:06.176Z,783.08
2023-05-23T09:23:37.152Z,807.53
2023-05-23T09:26:06.118Z,808.17
2023-05-23T09:28:35.132Z,784.30
2023-05-23T09:31:04.706Z,843.63
2023-05-23T09:33:45.077Z,832.70
2023-05-23T09:36:13.596Z,862.40
2023-05-23T09:38:44.800Z,823.75
2023-05-23T09:41:13.779Z,844.25
2023-05-23T09:43:50.775Z,799.13
2023-05-23T09:46:19.982Z,777.88
2023-05-23T09:48:48.733Z,770.00
2023-05-23T09:51:17.184Z,832.53
2023-05-23T09:53:47.072Z,799.15
2023-05-23T09:56:16.710Z,826.08
2023-05-23T09:58:48.114Z,777.35
2023-05-23T10:01:17.640Z,830.55
2023-05-23T10:03:49.816Z,798.28
2023-05-23T10:06:23.707Z,794.70
2023-05-23T10:08:56.949Z,801.70
2023-05-23T10:12:16.984Z,810.53
2023-05-23T10:14:46.938Z,831.42
2023-05-23T10:17:21.551Z,859.00
2023-05-23T10:19:55.078Z,837.30
2023-05-23T10:22:23.569Z,843.88
2023-05-23T10:24:53.384Z,939.25
2023-05-23T10:27:21.939Z,811.40
2023-05-23T10:29:50.378Z,823.70
2023-05-23T10:32:19.182Z,825.45
2023-05-23T10:34:54.464Z,826.83
2023-05-23T10:37:25.994Z,865.97
2023-05-23T10:40:02.979Z,831.95
2023-05-23T10:42:41.587Z,842.03
2023-05-23T10:45:17.449Z,836.35
2023-05-23T10:47:47.984Z,852.83
2023-05-23T10:50:18.305Z,861.20
2023-05-23T10:52:46.931Z,824.05
2023-05-23T10:55:17.876Z,826.53
2023-05-23T10:57:46.754Z,840.17
2023-05-23T11:00:17.015Z,840.92
2023-05-23T11:03:02.950Z,845.95
2023-05-23T11:05:32.018Z,850.13
2023-05-23T11:08:11.040Z,828.75
2023-05-23T11:11:02.048Z,845.70
2023-05-23T11:14:00.246Z,830.35
2023-05-23T11:16:30.401Z,859.92
2023-05-23T11:19:32.144Z,892.25
2023-05-23T11:22:03.010Z,853.17
2023-05-23T11:24:52.022Z,839.15
2023-05-23T11:27:28.167Z,803.03
2023-05-23T11:30:05.077Z,821.20
2023-05-23T11:32:33.916Z,852.28
2023-05-23T11:35:03.754Z,838.15
2023-05-23T11:37:32.994Z,830.05
2023-05-23T11:40:03.987Z,835.15
2023-05-23T11:42:34.488Z,889.63
2023-05-23T11:45:03.613Z,790.13
2023-05-23T11:47:32.551Z,832.33
2023-05-23T11:50:03.529Z,830.00
2023-05-23T11:52:35.182Z,831.60
2023-05-23T11:55:04.496Z,832.22
2023-05-23T11:57:34.908Z,830.03
2023-05-23T12:00:04.230Z,900.70
2023-05-23T12:02:32.854Z,882.53
2023-05-23T12:07:52.285Z,882.47
2023-05-23T12:10:21.834Z,831.00
2023-05-23T12:12:53.743Z,831.83
2023-05-23T12:15:27.997Z,832.40
2023-05-23T12:17:57.522Z,876.80
2023-05-23T12:20:28.820Z,832.08
2023-05-23T12:22:58.943Z,901.90
2023-05-23T12:25:27.716Z,831.65
2023-05-23T12:27:58.769Z,817.80
2023-05-23T12:30:27.428Z,819.17
2023-05-23T12:32:55.930Z,819.15
2023-05-23T12:35:28.283Z,828.33
2023-05-23T12:37:58.814Z,839.72
2023-05-23T12:40:27.476Z,828.67
2023-05-23T12:42:58.112Z,841.45
2023-05-23T12:45:32.803Z,886.38
2023-05-23T12:48:01.987Z,826.42
2023-05-23T12:50:30.941Z,843.13
2023-05-23T12:52:59.848Z,880.00
2023-05-23T12:55:28.360Z,836.80
2023-05-23T12:57:58.154Z,826.25
2023-05-23T13:00:26.604Z,849.15
2023-05-23T13:02:55.110Z,850.42
2023-05-23T13:05:29.335Z,838.55
2023-05-23T13:10:30.192Z,827.33
2023-05-23T13:13:02.721Z,850.33
2023-05-23T13:15:31.636Z,873.75
2023-05-23T13:18:00.403Z,837.88
2023-05-23T13:20:32.068Z,830.97
2023-05-23T13:23:00.780Z,866.55
2023-05-23T13:25:29.578Z,838.28
2023-05-23T13:27:58.047Z,888.50
2023-05-23T13:30:27.860Z,858.10
2023-05-23T13:32:56.428Z,893.95
2023-05-23T13:35:25.068Z,834.38
2023-05-23T13:37:53.697Z,830.08
2023-05-23T13:40:24.617Z,838.97
2023-05-23T13:42:53.465Z,839.40
2023-05-23T13:45:23.215Z,843.97
2023-05-23T13:47:53.117Z,838.08
2023-05-23T13:50:21.869Z,849.25
2023-05-23T13:52:50.351Z,822.95
2023-05-23T13:55:19.564Z,849.65
2023-05-23T13:57:48.037Z,841.58
2023-05-23T14:00:17.376Z,861.55
2023-05-23T14:02:45.838Z,834.75
2023-05-23T14:05:15.728Z,878.58
2023-05-23T14:07:47.592Z,845.08
2023-05-23T14:10:17.443Z,839.38
2023-05-23T14:12:46.186Z,867.33
2023-05-23T14:15:14.892Z,842.80
2023-05-23T14:17:43.512Z,863.78
2023-05-23T14:20:14.204Z,887.35
2023-05-23T14:22:42.739Z,878.83
2023-05-23T14:25:11.871Z,894.45
2023-05-23T14:27:41.253Z,916.38
2023-05-23T14:30:10.855Z,867.38
2023-05-23T14:32:39.973Z,916.88
2023-05-23T14:35:10.316Z,836.67
2023-05-23T14:37:40.430Z,861.40
2023-05-23T14:40:11.062Z,841.25
2023-05-23T14:42:39.540Z,849.55
2023-05-23T14:45:08.734Z,866.40
2023-05-23T14:47:37.621Z,948.88
2023-05-23T14:50:06.804Z,850.92
2023-05-23T14:52:35.398Z,832.30
2023-05-23T14:55:05.597Z,823.20
2023-05-23T14:57:34.270Z,912.33
2023-05-23T15:00:04.958Z,891.97
2023-05-23T15:02:33.718Z,897.15
2023-05-23T15:05:02.318Z,817.40
2023-05-23T15:07:33.404Z,822.47
2023-05-23T15:10:02.455Z,812.28
2023-05-23T15:12:32.370Z,857.65
2023-05-23T15:15:04.148Z,855.15
2023-05-23T15:17:33.401Z,882.33
2023-05-23T15:20:04.419Z,900.47
2023-05-23T15:22:39.506Z,848.80
2023-05-23T15:25:10.305Z,852.25
2023-05-23T15:27:40.251Z,863.95
2023-05-23T15:30:10.003Z,852.15
2023-05-23T15:32:38.646Z,894.72
2023-05-23T15:35:07.892Z,835.63
2023-05-23T15:37:36.330Z,864.38
2023-05-23T15:40:05.607Z,848.55
2023-05-23T15:42:34.137Z,967.33
2023-05-23T15:45:04.081Z,925.75
2023-05-23T15:47:32.615Z,933.92
2023-05-23T15:50:01.346Z,806.58
2023-05-23T15:52:29.940Z,826.03
2023-05-23T15:54:58.490Z,798.20
2023-05-23T15:57:26.982Z,892.40
2023-05-23T15:59:55.604Z,825.35
2023-05-23T16:02:25.566Z,781.03
2023-05-23T16:04:54.183Z,819.40
2023-05-23T16:07:22.700Z,842.15
2023-05-23T16:09:51.117Z,783.00
2023-05-23T16:12:19.659Z,844.83
2023-05-23T16:14:48.177Z,774.45
2023-05-23T16:17:16.725Z,780.22
2023-05-23T16:19:46.661Z,770.40
2023-05-23T16:22:15.092Z,810.50
2023-05-23T16:24:44.287Z,839.45
2023-05-23T16:27:12.657Z,846.33
2023-05-23T16:29:41.226Z,773.17
2023-05-23T16:32:09.999Z,797.78
2023-05-23T16:34:38.590Z,819.80
2023-05-23T16:37:08.413Z,847.15
2023-05-23T16:39:38.033Z,840.97
2023-05-23T16:42:08.242Z,835.13
2023-05-23T16:44:36.777Z,828.05
2023-05-23T16:47:05.438Z,821.92
2023-05-23T16:49:33.847Z,796.40
2023-05-23T16:52:02.592Z,822.42
2023-05-23T16:54:32.493Z,837.05
2023-05-23T16:57:02.329Z,821.67
2023-05-23T16:59:31.846Z,787.47
2023-05-23T17:02:00.447Z,780.25
2023-05-23T17:04:28.873Z,824.60
2023-05-23T17:06:58.167Z,867.90
2023-05-23T17:09:26.618Z,819.03
2023-05-23T17:11:56.575Z,810.33
2023-05-23T17:14:24.971Z,792.70
2023-05-23T17:16:53.438Z,807.42
2023-05-23T17:19:22.065Z,815.08
2023-05-23T17:21:50.812Z,886.42
2023-05-23T17:24:20.667Z,814.65
2023-05-23T17:26:49.219Z,822.20
2023-05-23T17:29:20.330Z,820.85
2023-05-23T17:31:48.757Z,803.70
2023-05-23T17:34:18.417Z,823.38
2023-05-23T17:36:46.800Z,810.67
2023-05-23T17:39:15.379Z,803.53
2023-05-23T17:41:44.722Z,839.22
2023-05-23T17:44:13.133Z,844.40
2023-05-23T17:46:42.958Z,775.25
2023-05-23T17:49:11.390Z,784.35
2023-05-23T17:51:39.876Z,774.10
2023-05-23T17:54:08.299Z,757.85
2023-05-23T17:56:36.722Z,776.72
2023-05-23T17:59:06.078Z,754.90
2023-05-23T18:01:35.435Z,864.88
2023-05-23T18:04:05.671Z,768.20
2023-05-23T18:06:34.149Z,761.13
2023-05-23T18:09:03.262Z,779.97
2023-05-23T18:11:31.954Z,714.33
2023-05-23T18:14:00.369Z,790.75
2023-05-23T18:16:28.864Z,711.83
2023-05-23T18:18:58.823Z,715.55
2023-05-23T18:21:29.748Z,729.45
2023-05-23T18:23:58.145Z,718.42
2023-05-23T18:26:27.237Z,726.08
2023-05-23T18:28:55.684Z,744.15
2023-05-23T18:31:24.082Z,713.20
2023-05-23T18:33:52.691Z,733.15
2023-05-23T18:36:21.126Z,784.40
2023-05-23T18:38:50.952Z,698.08
2023-05-23T18:41:19.464Z,755.80
2023-05-23T18:43:47.917Z,700.13
2023-05-23T18:46:16.404Z,752.10
2023-05-23T18:48:44.926Z,713.63
2023-05-23T18:51:13.502Z,746.42
2023-05-23T18:53:43.174Z,714.88
2023-05-23T18:56:13.054Z,743.63
2023-05-23T18:58:41.506Z,706.67
2023-05-23T19:01:10.029Z,751.88
2023-05-23T19:03:38.497Z,723.88
2023-05-23T19:06:08.303Z,734.03
2023-05-23T19:08:37.054Z,735.13
2023-05-23T19:11:05.970Z,760.55
2023-05-23T19:13:35.713Z,715.35
2023-05-23T19:16:04.424Z,736.63
2023-05-23T19:18:32.874Z,723.80
2023-05-23T19:21:01.993Z,774.88
2023-05-23T19:23:30.487Z,750.05
2023-05-23T19:25:58.991Z,728.92
2023-05-23T19:28:27.459Z,732.10
2023-05-23T19:30:57.298Z,738.92
2023-05-23T19:33:25.968Z,737.38
2023-05-23T19:35:55.021Z,736.13
2023-05-23T19:38:23.560Z,753.50
2023-05-23T19:40:51.927Z,744.53
2023-05-23T19:43:20.506Z,743.10
2023-05-23T19:45:49.074Z,736.22
2023-05-23T19:48:19.147Z,737.90
2023-05-23T19:50:47.684Z,767.65
2023-05-23T19:53:16.285Z,819.13
2023-05-23T19:55:44.767Z,790.80
2023-05-23T19:58:13.398Z,728.83
2023-05-23T20:00:42.825Z,837.45
2023-05-23T20:03:11.669Z,750.63
2023-05-23T20:05:41.703Z,756.28
2023-05-23T20:08:10.552Z,744.80
2023-05-23T20:10:39.179Z,769.75
2023-05-23T20:13:07.930Z,780.03
2023-05-23T20:15:39.987Z,724.92
2023-05-23T20:18:09.200Z,735.42
2023-05-23T20:20:37.760Z,727.15
2023-05-23T20:23:08.099Z,747.15
2023-05-23T20:25:36.560Z,729.90
2023-05-23T20:28:05.044Z,760.97
2023-05-23T20:30:33.691Z,729.33
2023-05-23T20:33:02.208Z,758.47
2023-05-23T20:35:31.086Z,759.67
2023-05-23T20:37:59.482Z,761.65
2023-05-23T20:40:29.759Z,742.03
2023-05-23T20:43:04.571Z,731.03
2023-05-23T20:45:33.690Z,738.30
2023-05-23T20:48:02.208Z,723.13
2023-05-23T20:50:31.306Z,754.17
2023-05-23T20:53:02.268Z,752.53
2023-05-23T20:55:35.505Z,718.90
2023-05-23T20:58:03.920Z,735.53
2023-05-23T21:00:32.422Z,725.35
2023-05-23T21:03:02.064Z,722.30
2023-05-23T21:05:30.763Z,704.17
2023-05-23T21:07:59.171Z,706.10
2023-05-23T21:10:27.537Z,741.58
2023-05-23T21:12:57.318Z,716.70
2023-05-23T21:15:26.073Z,786.53
2023-05-23T21:17:54.739Z,710.55
2023-05-23T21:20:23.418Z,748.45
2023-05-23T21:22:52.098Z,747.92
2023-05-23T21:25:20.565Z,750.40
2023-05-23T21:27:48.928Z,711.60
2023-05-23T21:30:18.877Z,748.00
2023-05-23T21:32:47.515Z,696.45
2023-05-23T21:35:15.929Z,746.60
2023-05-23T21:37:44.328Z,710.70
2023-05-23T21:40:13.373Z,699.47
2023-05-23T21:42:41.786Z,766.80
2023-05-23T21:45:11.290Z,727.03
2023-05-23T21:47:41.103Z,750.83
2023-05-23T21:50:10.565Z,736.55
2023-05-23T21:52:38.961Z,764.33
2023-05-23T21:55:07.595Z,732.83
2023-05-23T21:57:36.024Z,746.42
2023-05-23T22:00:04.751Z,705.58
2023-05-23T22:02:33.306Z,703.85
2023-05-23T22:05:03.703Z,740.63
2023-05-23T22:07:32.131Z,693.75
2023-05-23T22:10:00.612Z,681.95
2023-05-23T22:12:29.020Z,743.28
2023-05-23T22:14:57.376Z,753.20
2023-05-23T22:17:26.419Z,743.58
2023-05-23T22:19:57.026Z,729.33
2023-05-23T22:22:26.899Z,733.95
2023-05-23T22:24:55.336Z,738.33
2023-05-23T22:27:23.758Z,736.70
2023-05-23T22:29:52.203Z,749.55
2023-05-23T22:32:20.706Z,751.33
2023-05-23T22:34:49.123Z,729.35
2023-05-23T22:37:17.601Z,759.65
2023-05-23T22:39:47.424Z,747.95
2023-05-23T22:42:15.892Z,737.65
2023-05-23T22:44:44.340Z,747.40
2023-05-23T22:47:13.855Z,721.67
2023-05-23T22:49:43.559Z,740.95
2023-05-23T22:52:12.196Z,743.17
2023-05-23T22:54:40.608Z,722.22
2023-05-23T22:57:10.628Z,722.15
2023-05-23T22:59:39.613Z,732.13
2023-05-23T23:02:08.120Z,742.58
2023-05-23T23:04:38.152Z,757.97
2023-05-23T23:07:08.702Z,779.47
2023-05-23T23:09:37.230Z,715.33
2023-05-23T23:12:06.156Z,740.50
2023-05-23T23:14:35.936Z,756.65
2023-05-23T23:17:04.962Z,686.30
2023-05-23T23:19:35.250Z,743.97
2023-05-23T23:22:04.252Z,733.03
2023-05-23T23:24:32.851Z,680.60
2023-05-23T23:27:01.296Z,692.05
2023-05-23T23:29:29.673Z,718.88
2023-05-23T23:31:59.799Z,707.60
2023-05-23T23:34:28.154Z,704.90
2023-05-23T23:36:56.544Z,701.20
2023-05-23T23:39:24.981Z,719.03
2023-05-23T23:41:53.395Z,716.67
2023-05-23T23:44:21.810Z,699.30
2023-05-23T23:46:50.280Z,728.03
2023-05-23T23:49:20.651Z,736.63
2023-05-23T23:51:49.007Z,697.50
2023-05-23T23:54:17.508Z,694.30
2023-05-23T23:56:46.297Z,684.67
2023-05-23T23:59:14.679Z,767.80
